sensor_id;sensor_type;location;lat;lon;timestamp;P1;durP1;ratioP1;P2;durP2;ratioP2
56081;SDS011;41957;52.060;5.138;2023-01-10T00:00:50;13.07;;;3.15;;
56081;SDS011;41957;52.060;5.138;2023-01-10T00:03:15;13.35;;;3.10;;
56081;SDS011;41957;52.060;5.138;2023-01-10T00:05:41;12.10;;;2.78;;
56081;SDS011;41957;52.060;5.138;2023-01-10T00:08:07;12.70;;;2.88;;
56081;SDS011;41957;52.060;5.138;2023-01-10T00:10:33;16.60;;;3.30;;
56081;SDS011;41957;52.060;5.138;2023-01-10T00:12:59;13.73;;;3.72;;
56081;SDS011;41957;52.060;5.138;2023-01-10T00:15:43;12.65;;;3.33;;
56081;SDS011;41957;52.060;5.138;2023-01-10T00:18:09;12.77;;;2.95;;
56081;SDS011;41957;52.060;5.138;2023-01-10T00:20:35;12.52;;;2.88;;
56081;SDS011;41957;52.060;5.138;2023-01-10T00:23:00;13.52;;;3.30;;
56081;SDS011;41957;52.060;5.138;2023-01-10T00:25:27;12.65;;;3.17;;
56081;SDS011;41957;52.060;5.138;2023-01-10T00:27:53;13.27;;;3.30;;
56081;SDS011;41957;52.060;5.138;2023-01-10T00:30:42;12.43;;;3.08;;
56081;SDS011;41957;52.060;5.138;2023-01-10T00:33:07;13.55;;;3.13;;
56081;SDS011;41957;52.060;5.138;2023-01-10T00:35:34;11.65;;;2.90;;
56081;SDS011;41957;52.060;5.138;2023-01-10T00:37:59;13.05;;;2.92;;
56081;SDS011;41957;52.060;5.138;2023-01-10T00:40:29;14.80;;;3.08;;
56081;SDS011;41957;52.060;5.138;2023-01-10T00:42:55;12.45;;;2.95;;
56081;SDS011;41957;52.060;5.138;2023-01-10T00:45:39;11.45;;;3.03;;
56081;SDS011;41957;52.060;5.138;2023-01-10T00:48:05;13.57;;;3.22;;
56081;SDS011;41957;52.060;5.138;2023-01-10T00:50:30;14.80;;;3.28;;
56081;SDS011;41957;52.060;5.138;2023-01-10T00:52:56;11.73;;;2.72;;
56081;SDS011;41957;52.060;5.138;2023-01-10T00:55:21;13.63;;;3.08;;
56081;SDS011;41957;52.060;5.138;2023-01-10T00:57:46;13.68;;;3.28;;
56081;SDS011;41957;52.060;5.138;2023-01-10T01:00:12;13.00;;;2.90;;
56081;SDS011;41957;52.060;5.138;2023-01-10T01:02:37;13.48;;;3.03;;
56081;SDS011;41957;52.060;5.138;2023-01-10T01:05:03;12.93;;;2.88;;
56081;SDS011;41957;52.060;5.138;2023-01-10T01:07:29;12.75;;;2.88;;
56081;SDS011;41957;52.060;5.138;2023-01-10T01:09:54;11.77;;;2.63;;
56081;SDS011;41957;52.060;5.138;2023-01-10T01:12:38;13.82;;;2.97;;
56081;SDS011;41957;52.060;5.138;2023-01-10T01:15:03;14.38;;;3.30;;
56081;SDS011;41957;52.060;5.138;2023-01-10T01:17:29;14.00;;;3.50;;
56081;SDS011;41957;52.060;5.138;2023-01-10T01:19:54;11.65;;;2.92;;
56081;SDS011;41957;52.060;5.138;2023-01-10T01:22:20;14.23;;;3.05;;
56081;SDS011;41957;52.060;5.138;2023-01-10T01:24:45;14.15;;;3.17;;
56081;SDS011;41957;52.060;5.138;2023-01-10T01:27:10;14.27;;;3.13;;
56081;SDS011;41957;52.060;5.138;2023-01-10T01:29:36;11.88;;;3.08;;
56081;SDS011;41957;52.060;5.138;2023-01-10T01:32:01;13.73;;;3.28;;
56081;SDS011;41957;52.060;5.138;2023-01-10T01:34:27;13.85;;;3.17;;
56081;SDS011;41957;52.060;5.138;2023-01-10T01:36:52;17.20;;;3.67;;
56081;SDS011;41957;52.060;5.138;2023-01-10T01:39:20;14.23;;;3.45;;
56081;SDS011;41957;52.060;5.138;2023-01-10T01:41:46;13.63;;;2.97;;
56081;SDS011;41957;52.060;5.138;2023-01-10T01:44:21;14.20;;;3.20;;
56081;SDS011;41957;52.060;5.138;2023-01-10T01:47:06;14.32;;;2.75;;
56081;SDS011;41957;52.060;5.138;2023-01-10T01:49:39;13.20;;;2.88;;
56081;SDS011;41957;52.060;5.138;2023-01-10T01:52:09;14.15;;;2.97;;
56081;SDS011;41957;52.060;5.138;2023-01-10T01:54:41;13.98;;;3.10;;
56081;SDS011;41957;52.060;5.138;2023-01-10T01:57:08;15.68;;;3.42;;
56081;SDS011;41957;52.060;5.138;2023-01-10T01:59:37;12.32;;;3.15;;
56081;SDS011;41957;52.060;5.138;2023-01-10T02:02:07;15.95;;;3.35;;
56081;SDS011;41957;52.060;5.138;2023-01-10T02:04:38;13.75;;;3.22;;
56081;SDS011;41957;52.060;5.138;2023-01-10T02:07:09;15.30;;;3.00;;
56081;SDS011;41957;52.060;5.138;2023-01-10T02:09:40;13.23;;;3.05;;
56081;SDS011;41957;52.060;5.138;2023-01-10T02:12:09;14.37;;;3.23;;
56081;SDS011;41957;52.060;5.138;2023-01-10T02:14:35;14.52;;;3.13;;
56081;SDS011;41957;52.060;5.138;2023-01-10T02:17:02;13.88;;;3.08;;
56081;SDS011;41957;52.060;5.138;2023-01-10T02:28:02;13.13;;;3.03;;
56081;SDS011;41957;52.060;5.138;2023-01-10T02:33:45;11.77;;;3.17;;
56081;SDS011;41957;52.060;5.138;2023-01-10T02:47:19;14.57;;;3.40;;
56081;SDS011;41957;52.060;5.138;2023-01-10T02:49:46;15.38;;;3.63;;
56081;SDS011;41957;52.060;5.138;2023-01-10T02:52:14;13.57;;;3.53;;
56081;SDS011;41957;52.060;5.138;2023-01-10T02:54:44;14.02;;;2.90;;
56081;SDS011;41957;52.060;5.138;2023-01-10T03:06:02;13.32;;;2.97;;
56081;SDS011;41957;52.060;5.138;2023-01-10T03:11:07;15.82;;;3.05;;
56081;SDS011;41957;52.060;5.138;2023-01-10T03:16:04;15.77;;;3.42;;
56081;SDS011;41957;52.060;5.138;2023-01-10T03:18:47;14.38;;;3.28;;
56081;SDS011;41957;52.060;5.138;2023-01-10T03:21:18;14.13;;;3.38;;
56081;SDS011;41957;52.060;5.138;2023-01-10T03:23:46;13.40;;;3.53;;
56081;SDS011;41957;52.060;5.138;2023-01-10T03:26:14;12.25;;;2.80;;
56081;SDS011;41957;52.060;5.138;2023-01-10T03:28:48;14.43;;;3.45;;
56081;SDS011;41957;52.060;5.138;2023-01-10T03:31:27;15.30;;;3.53;;
56081;SDS011;41957;52.060;5.138;2023-01-10T03:33:58;12.38;;;3.15;;
56081;SDS011;41957;52.060;5.138;2023-01-10T03:36:31;12.57;;;3.15;;
56081;SDS011;41957;52.060;5.138;2023-01-10T03:49:46;15.50;;;3.55;;
56081;SDS011;41957;52.060;5.138;2023-01-10T03:52:14;14.95;;;3.33;;
56081;SDS011;41957;52.060;5.138;2023-01-10T03:54:44;14.13;;;3.08;;
56081;SDS011;41957;52.060;5.138;2023-01-10T03:57:16;15.52;;;3.78;;
56081;SDS011;41957;52.060;5.138;2023-01-10T03:59:49;14.75;;;3.20;;
56081;SDS011;41957;52.060;5.138;2023-01-10T04:02:17;14.25;;;3.38;;
56081;SDS011;41957;52.060;5.138;2023-01-10T04:04:42;16.98;;;3.78;;
56081;SDS011;41957;52.060;5.138;2023-01-10T04:07:08;13.75;;;3.35;;
56081;SDS011;41957;52.060;5.138;2023-01-10T04:09:33;15.48;;;3.70;;
56081;SDS011;41957;52.060;5.138;2023-01-10T04:11:59;16.50;;;3.72;;
56081;SDS011;41957;52.060;5.138;2023-01-10T04:14:24;17.10;;;3.38;;
56081;SDS011;41957;52.060;5.138;2023-01-10T04:16:49;16.90;;;3.40;;
56081;SDS011;41957;52.060;5.138;2023-01-10T04:19:15;15.10;;;3.53;;
56081;SDS011;41957;52.060;5.138;2023-01-10T04:21:40;15.57;;;4.03;;
56081;SDS011;41957;52.060;5.138;2023-01-10T04:24:06;14.02;;;3.45;;
56081;SDS011;41957;52.060;5.138;2023-01-10T04:26:31;13.13;;;3.50;;
56081;SDS011;41957;52.060;5.138;2023-01-10T04:28:56;14.30;;;3.67;;
56081;SDS011;41957;52.060;5.138;2023-01-10T04:31:22;14.38;;;3.58;;
56081;SDS011;41957;52.060;5.138;2023-01-10T04:33:47;15.45;;;3.40;;
56081;SDS011;41957;52.060;5.138;2023-01-10T04:36:13;16.40;;;3.67;;
56081;SDS011;41957;52.060;5.138;2023-01-10T04:38:38;16.45;;;3.90;;
56081;SDS011;41957;52.060;5.138;2023-01-10T04:41:03;15.95;;;3.33;;
56081;SDS011;41957;52.060;5.138;2023-01-10T04:43:29;16.13;;;3.88;;
56081;SDS011;41957;52.060;5.138;2023-01-10T04:45:54;14.07;;;3.20;;
56081;SDS011;41957;52.060;5.138;2023-01-10T04:48:20;17.20;;;3.80;;
56081;SDS011;41957;52.060;5.138;2023-01-10T04:50:49;18.70;;;3.88;;
56081;SDS011;41957;52.060;5.138;2023-01-10T04:53:15;15.68;;;3.67;;
56081;SDS011;41957;52.060;5.138;2023-01-10T04:55:40;15.27;;;3.78;;
56081;SDS011;41957;52.060;5.138;2023-01-10T04:58:06;17.90;;;4.32;;
56081;SDS011;41957;52.060;5.138;2023-01-10T05:00:31;15.98;;;3.90;;
56081;SDS011;41957;52.060;5.138;2023-01-10T05:02:57;14.23;;;3.55;;
56081;SDS011;41957;52.060;5.138;2023-01-10T05:05:22;14.50;;;3.83;;
56081;SDS011;41957;52.060;5.138;2023-01-10T05:07:47;14.23;;;3.83;;
56081;SDS011;41957;52.060;5.138;2023-01-10T05:10:13;17.70;;;3.90;;
56081;SDS011;41957;52.060;5.138;2023-01-10T05:12:38;14.35;;;3.88;;
56081;SDS011;41957;52.060;5.138;2023-01-10T05:15:04;16.50;;;3.53;;
56081;SDS011;41957;52.060;5.138;2023-01-10T05:17:30;17.50;;;3.95;;
56081;SDS011;41957;52.060;5.138;2023-01-10T05:19:55;15.10;;;3.72;;
56081;SDS011;41957;52.060;5.138;2023-01-10T05:22:20;18.42;;;3.58;;
56081;SDS011;41957;52.060;5.138;2023-01-10T05:24:46;16.08;;;3.65;;
56081;SDS011;41957;52.060;5.138;2023-01-10T05:27:11;16.45;;;3.80;;
56081;SDS011;41957;52.060;5.138;2023-01-10T05:29:36;18.30;;;4.00;;
56081;SDS011;41957;52.060;5.138;2023-01-10T05:32:02;15.85;;;3.83;;
56081;SDS011;41957;52.060;5.138;2023-01-10T05:34:27;18.10;;;3.88;;
56081;SDS011;41957;52.060;5.138;2023-01-10T05:36:53;17.70;;;4.22;;
56081;SDS011;41957;52.060;5.138;2023-01-10T05:39:18;17.45;;;4.47;;
56081;SDS011;41957;52.060;5.138;2023-01-10T05:41:45;16.42;;;4.65;;
56081;SDS011;41957;52.060;5.138;2023-01-10T05:44:10;14.98;;;3.60;;
56081;SDS011;41957;52.060;5.138;2023-01-10T05:46:36;16.73;;;4.13;;
56081;SDS011;41957;52.060;5.138;2023-01-10T05:49:01;13.23;;;3.75;;
56081;SDS011;41957;52.060;5.138;2023-01-10T05:51:26;17.38;;;4.05;;
56081;SDS011;41957;52.060;5.138;2023-01-10T05:53:53;14.82;;;3.85;;
56081;SDS011;41957;52.060;5.138;2023-01-10T05:56:18;15.30;;;3.95;;
56081;SDS011;41957;52.060;5.138;2023-01-10T05:58:43;16.35;;;4.10;;
56081;SDS011;41957;52.060;5.138;2023-01-10T06:01:09;19.73;;;3.75;;
56081;SDS011;41957;52.060;5.138;2023-01-10T06:03:34;15.95;;;3.90;;
56081;SDS011;41957;52.060;5.138;2023-01-10T06:06:00;16.13;;;4.20;;
56081;SDS011;41957;52.060;5.138;2023-01-10T06:08:27;15.13;;;4.00;;
56081;SDS011;41957;52.060;5.138;2023-01-10T06:10:52;17.88;;;4.00;;
56081;SDS011;41957;52.060;5.138;2023-01-10T06:13:18;12.90;;;3.55;;
56081;SDS011;41957;52.060;5.138;2023-01-10T06:15:43;15.02;;;3.67;;
56081;SDS011;41957;52.060;5.138;2023-01-10T06:18:09;16.67;;;3.80;;
56081;SDS011;41957;52.060;5.138;2023-01-10T06:20:34;14.27;;;3.38;;
56081;SDS011;41957;52.060;5.138;2023-01-10T06:23:00;15.32;;;3.72;;
56081;SDS011;41957;52.060;5.138;2023-01-10T06:25:28;14.18;;;3.50;;
56081;SDS011;41957;52.060;5.138;2023-01-10T06:27:54;15.65;;;4.03;;
56081;SDS011;41957;52.060;5.138;2023-01-10T06:30:20;18.52;;;3.72;;
56081;SDS011;41957;52.060;5.138;2023-01-10T06:32:45;17.20;;;3.85;;
56081;SDS011;41957;52.060;5.138;2023-01-10T06:35:10;19.45;;;4.40;;
56081;SDS011;41957;52.060;5.138;2023-01-10T06:37:36;16.85;;;4.07;;
56081;SDS011;41957;52.060;5.138;2023-01-10T06:40:02;18.55;;;4.47;;
56081;SDS011;41957;52.060;5.138;2023-01-10T06:42:28;16.17;;;4.72;;
56081;SDS011;41957;52.060;5.138;2023-01-10T06:44:53;16.08;;;4.35;;
56081;SDS011;41957;52.060;5.138;2023-01-10T06:47:18;17.20;;;4.05;;
56081;SDS011;41957;52.060;5.138;2023-01-10T06:49:44;19.33;;;4.30;;
56081;SDS011;41957;52.060;5.138;2023-01-10T06:52:09;15.85;;;4.05;;
56081;SDS011;41957;52.060;5.138;2023-01-10T06:54:35;18.38;;;4.68;;
56081;SDS011;41957;52.060;5.138;2023-01-10T06:57:00;20.33;;;4.68;;
56081;SDS011;41957;52.060;5.138;2023-01-10T06:59:26;19.05;;;3.47;;
56081;SDS011;41957;52.060;5.138;2023-01-10T07:01:51;18.90;;;4.53;;
56081;SDS011;41957;52.060;5.138;2023-01-10T07:04:16;18.05;;;4.85;;
56081;SDS011;41957;52.060;5.138;2023-01-10T07:06:42;20.05;;;4.85;;
56081;SDS011;41957;52.060;5.138;2023-01-10T07:09:07;19.38;;;4.53;;
56081;SDS011;41957;52.060;5.138;2023-01-10T07:11:33;20.15;;;5.00;;
56081;SDS011;41957;52.060;5.138;2023-01-10T07:13:59;17.20;;;4.35;;
56081;SDS011;41957;52.060;5.138;2023-01-10T07:16:25;19.95;;;4.57;;
56081;SDS011;41957;52.060;5.138;2023-01-10T07:18:51;20.80;;;5.28;;
56081;SDS011;41957;52.060;5.138;2023-01-10T07:21:16;21.00;;;5.20;;
56081;SDS011;41957;52.060;5.138;2023-01-10T07:23:46;20.27;;;4.65;;
56081;SDS011;41957;52.060;5.138;2023-01-10T07:26:12;17.92;;;4.93;;
56081;SDS011;41957;52.060;5.138;2023-01-10T07:28:41;18.80;;;4.95;;
56081;SDS011;41957;52.060;5.138;2023-01-10T07:31:08;23.85;;;5.60;;
56081;SDS011;41957;52.060;5.138;2023-01-10T07:33:34;19.88;;;5.10;;
56081;SDS011;41957;52.060;5.138;2023-01-10T07:35:59;20.42;;;5.03;;
56081;SDS011;41957;52.060;5.138;2023-01-10T07:38:25;21.30;;;5.10;;
56081;SDS011;41957;52.060;5.138;2023-01-10T07:40:50;20.13;;;4.97;;
56081;SDS011;41957;52.060;5.138;2023-01-10T07:43:16;24.15;;;4.75;;
56081;SDS011;41957;52.060;5.138;2023-01-10T07:45:41;18.45;;;4.70;;
56081;SDS011;41957;52.060;5.138;2023-01-10T07:48:07;20.60;;;5.13;;
56081;SDS011;41957;52.060;5.138;2023-01-10T07:50:34;15.20;;;3.72;;
56081;SDS011;41957;52.060;5.138;2023-01-10T07:53:01;18.65;;;4.75;;
56081;SDS011;41957;52.060;5.138;2023-01-10T07:55:27;25.17;;;5.78;;
56081;SDS011;41957;52.060;5.138;2023-01-10T07:57:54;21.80;;;5.18;;
56081;SDS011;41957;52.060;5.138;2023-01-10T08:00:20;20.40;;;5.60;;
56081;SDS011;41957;52.060;5.138;2023-01-10T08:02:45;20.08;;;5.25;;
56081;SDS011;41957;52.060;5.138;2023-01-10T08:05:11;19.65;;;4.93;;
56081;SDS011;41957;52.060;5.138;2023-01-10T08:07:37;21.15;;;4.90;;
56081;SDS011;41957;52.060;5.138;2023-01-10T08:10:03;20.08;;;4.93;;
56081;SDS011;41957;52.060;5.138;2023-01-10T08:12:29;16.77;;;4.32;;
56081;SDS011;41957;52.060;5.138;2023-01-10T08:14:55;18.98;;;4.95;;
56081;SDS011;41957;52.060;5.138;2023-01-10T08:17:20;18.75;;;4.70;;
56081;SDS011;41957;52.060;5.138;2023-01-10T08:19:46;19.67;;;4.78;;
56081;SDS011;41957;52.060;5.138;2023-01-10T08:22:12;17.23;;;4.68;;
56081;SDS011;41957;52.060;5.138;2023-01-10T08:24:37;16.52;;;4.30;;
56081;SDS011;41957;52.060;5.138;2023-01-10T08:27:03;16.55;;;4.57;;
56081;SDS011;41957;52.060;5.138;2023-01-10T08:29:29;17.08;;;4.57;;
56081;SDS011;41957;52.060;5.138;2023-01-10T08:31:55;16.58;;;4.47;;
56081;SDS011;41957;52.060;5.138;2023-01-10T08:34:20;18.63;;;4.88;;
56081;SDS011;41957;52.060;5.138;2023-01-10T08:36:52;17.27;;;4.43;;
56081;SDS011;41957;52.060;5.138;2023-01-10T08:39:18;19.90;;;4.70;;
56081;SDS011;41957;52.060;5.138;2023-01-10T08:41:46;17.48;;;4.68;;
56081;SDS011;41957;52.060;5.138;2023-01-10T08:44:12;17.02;;;4.35;;
56081;SDS011;41957;52.060;5.138;2023-01-10T08:46:39;17.20;;;4.20;;
56081;SDS011;41957;52.060;5.138;2023-01-10T08:49:05;14.55;;;4.28;;
56081;SDS011;41957;52.060;5.138;2023-01-10T08:51:30;19.25;;;4.43;;
56081;SDS011;41957;52.060;5.138;2023-01-10T08:53:55;16.67;;;4.75;;
56081;SDS011;41957;52.060;5.138;2023-01-10T08:56:21;22.13;;;5.70;;
56081;SDS011;41957;52.060;5.138;2023-01-10T08:58:46;20.05;;;4.70;;
56081;SDS011;41957;52.060;5.138;2023-01-10T09:01:12;17.75;;;4.38;;
56081;SDS011;41957;52.060;5.138;2023-01-10T09:03:38;20.02;;;4.53;;
56081;SDS011;41957;52.060;5.138;2023-01-10T09:06:04;21.33;;;5.43;;
56081;SDS011;41957;52.060;5.138;2023-01-10T09:08:30;17.15;;;4.88;;
56081;SDS011;41957;52.060;5.138;2023-01-10T09:10:59;23.35;;;5.20;;
56081;SDS011;41957;52.060;5.138;2023-01-10T09:13:25;18.00;;;4.70;;
56081;SDS011;41957;52.060;5.138;2023-01-10T09:15:51;19.33;;;4.63;;
56081;SDS011;41957;52.060;5.138;2023-01-10T09:18:17;17.90;;;5.20;;
56081;SDS011;41957;52.060;5.138;2023-01-10T09:20:42;16.50;;;4.45;;
56081;SDS011;41957;52.060;5.138;2023-01-10T09:23:09;16.75;;;4.72;;
56081;SDS011;41957;52.060;5.138;2023-01-10T09:25:37;16.13;;;4.47;;
56081;SDS011;41957;52.060;5.138;2023-01-10T09:28:03;16.63;;;4.32;;
56081;SDS011;41957;52.060;5.138;2023-01-10T09:30:29;20.02;;;4.70;;
56081;SDS011;41957;52.060;5.138;2023-01-10T09:32:56;18.05;;;4.50;;
56081;SDS011;41957;52.060;5.138;2023-01-10T09:35:22;17.00;;;4.30;;
56081;SDS011;41957;52.060;5.138;2023-01-10T09:37:48;17.23;;;4.30;;
56081;SDS011;41957;52.060;5.138;2023-01-10T09:40:15;16.30;;;4.13;;
56081;SDS011;41957;52.060;5.138;2023-01-10T09:48:19;18.92;;;4.55;;
56081;SDS011;41957;52.060;5.138;2023-01-10T09:53:26;18.05;;;4.57;;
56081;SDS011;41957;52.060;5.138;2023-01-10T09:55:55;18.38;;;3.92;;
56081;SDS011;41957;52.060;5.138;2023-01-10T09:58:23;16.08;;;4.32;;
56081;SDS011;41957;52.060;5.138;2023-01-10T10:00:55;16.00;;;4.38;;
56081;SDS011;41957;52.060;5.138;2023-01-10T10:03:24;18.25;;;4.20;;
56081;SDS011;41957;52.060;5.138;2023-01-10T10:06:01;14.65;;;3.95;;
56081;SDS011;41957;52.060;5.138;2023-01-10T10:08:27;16.95;;;4.20;;
56081;SDS011;41957;52.060;5.138;2023-01-10T10:19:20;14.32;;;3.88;;
56081;SDS011;41957;52.060;5.138;2023-01-10T10:22:07;16.67;;;3.83;;
56081;SDS011;41957;52.060;5.138;2023-01-10T10:25:01;16.98;;;4.25;;
56081;SDS011;41957;52.060;5.138;2023-01-10T10:28:34;15.95;;;4.13;;
56081;SDS011;41957;52.060;5.138;2023-01-10T10:30:59;17.42;;;4.07;;
56081;SDS011;41957;52.060;5.138;2023-01-10T10:33:33;17.33;;;4.15;;
56081;SDS011;41957;52.060;5.138;2023-01-10T10:36:13;17.27;;;4.55;;
56081;SDS011;41957;52.060;5.138;2023-01-10T10:38:45;16.73;;;4.67;;
56081;SDS011;41957;52.060;5.138;2023-01-10T10:41:27;16.58;;;4.30;;
56081;SDS011;41957;52.060;5.138;2023-01-10T10:43:53;15.68;;;4.53;;
56081;SDS011;41957;52.060;5.138;2023-01-10T10:46:24;15.15;;;4.38;;
56081;SDS011;41957;52.060;5.138;2023-01-10T10:48:57;20.38;;;4.85;;
56081;SDS011;41957;52.060;5.138;2023-01-10T10:53:54;18.60;;;4.63;;
56081;SDS011;41957;52.060;5.138;2023-01-10T10:56:22;16.95;;;4.22;;
56081;SDS011;41957;52.060;5.138;2023-01-10T10:58:51;17.73;;;4.82;;
56081;SDS011;41957;52.060;5.138;2023-01-10T11:01:20;17.95;;;4.30;;
56081;SDS011;41957;52.060;5.138;2023-01-10T11:03:48;16.30;;;4.45;;
56081;SDS011;41957;52.060;5.138;2023-01-10T11:06:19;16.70;;;4.38;;
56081;SDS011;41957;52.060;5.138;2023-01-10T11:08:48;21.00;;;4.90;;
56081;SDS011;41957;52.060;5.138;2023-01-10T11:11:18;15.73;;;4.20;;
56081;SDS011;41957;52.060;5.138;2023-01-10T11:16:32;15.05;;;4.20;;
56081;SDS011;41957;52.060;5.138;2023-01-10T11:21:50;16.88;;;4.35;;
56081;SDS011;41957;52.060;5.138;2023-01-10T11:26:58;20.20;;;4.68;;
56081;SDS011;41957;52.060;5.138;2023-01-10T11:29:32;15.75;;;3.97;;
56081;SDS011;41957;52.060;5.138;2023-01-10T11:32:13;19.83;;;4.72;;
56081;SDS011;41957;52.060;5.138;2023-01-10T11:34:41;18.08;;;4.55;;
56081;SDS011;41957;52.060;5.138;2023-01-10T11:37:18;18.13;;;4.47;;
56081;SDS011;41957;52.060;5.138;2023-01-10T11:39:46;15.52;;;4.10;;
56081;SDS011;41957;52.060;5.138;2023-01-10T11:44:53;16.08;;;4.03;;
56081;SDS011;41957;52.060;5.138;2023-01-10T11:47:19;17.23;;;4.55;;
56081;SDS011;41957;52.060;5.138;2023-01-10T11:49:46;16.02;;;4.05;;
56081;SDS011;41957;52.060;5.138;2023-01-10T11:52:23;19.30;;;4.72;;
56081;SDS011;41957;52.060;5.138;2023-01-10T11:54:51;16.23;;;4.25;;
56081;SDS011;41957;52.060;5.138;2023-01-10T11:57:23;18.67;;;3.90;;
56081;SDS011;41957;52.060;5.138;2023-01-10T12:02:26;16.23;;;4.40;;
56081;SDS011;41957;52.060;5.138;2023-01-10T12:04:56;17.88;;;4.55;;
56081;SDS011;41957;52.060;5.138;2023-01-10T12:07:24;16.50;;;4.20;;
56081;SDS011;41957;52.060;5.138;2023-01-10T12:09:57;16.98;;;4.38;;
56081;SDS011;41957;52.060;5.138;2023-01-10T12:12:28;18.13;;;4.30;;
56081;SDS011;41957;52.060;5.138;2023-01-10T12:14:56;18.58;;;4.47;;
56081;SDS011;41957;52.060;5.138;2023-01-10T12:19:54;13.93;;;4.18;;
56081;SDS011;41957;52.060;5.138;2023-01-10T12:22:26;19.40;;;4.10;;
56081;SDS011;41957;52.060;5.138;2023-01-10T12:24:52;16.73;;;4.10;;
56081;SDS011;41957;52.060;5.138;2023-01-10T12:27:20;18.30;;;4.43;;
56081;SDS011;41957;52.060;5.138;2023-01-10T12:30:24;14.88;;;3.97;;
56081;SDS011;41957;52.060;5.138;2023-01-10T12:32:47;16.13;;;4.10;;
56081;SDS011;41957;52.060;5.138;2023-01-10T12:35:18;16.20;;;4.10;;
56081;SDS011;41957;52.060;5.138;2023-01-10T12:37:49;18.88;;;4.25;;
56081;SDS011;41957;52.060;5.138;2023-01-10T12:43:11;15.13;;;3.85;;
56081;SDS011;41957;52.060;5.138;2023-01-10T12:46:19;17.63;;;4.22;;
56081;SDS011;41957;52.060;5.138;2023-01-10T12:52:02;16.77;;;3.95;;
56081;SDS011;41957;52.060;5.138;2023-01-10T12:54:34;14.80;;;4.10;;
56081;SDS011;41957;52.060;5.138;2023-01-10T12:57:10;15.95;;;4.18;;
56081;SDS011;41957;52.060;5.138;2023-01-10T13:00:09;16.10;;;4.05;;
56081;SDS011;41957;52.060;5.138;2023-01-10T13:02:45;13.13;;;3.72;;
56081;SDS011;41957;52.060;5.138;2023-01-10T13:05:15;18.50;;;4.40;;
56081;SDS011;41957;52.060;5.138;2023-01-10T13:07:44;17.08;;;4.28;;
56081;SDS011;41957;52.060;5.138;2023-01-10T13:10:16;14.90;;;3.80;;
56081;SDS011;41957;52.060;5.138;2023-01-10T13:21:29;14.60;;;4.00;;
56081;SDS011;41957;52.060;5.138;2023-01-10T13:24:00;15.70;;;4.07;;
56081;SDS011;41957;52.060;5.138;2023-01-10T13:29:24;14.80;;;4.15;;
56081;SDS011;41957;52.060;5.138;2023-01-10T13:34:26;17.55;;;4.00;;
56081;SDS011;41957;52.060;5.138;2023-01-10T13:36:59;15.95;;;4.15;;
56081;SDS011;41957;52.060;5.138;2023-01-10T13:39:35;14.45;;;4.00;;
56081;SDS011;41957;52.060;5.138;2023-01-10T13:50:51;15.73;;;3.80;;
56081;SDS011;41957;52.060;5.138;2023-01-10T13:55:31;15.40;;;3.78;;
56081;SDS011;41957;52.060;5.138;2023-01-10T13:58:04;17.45;;;4.25;;
56081;SDS011;41957;52.060;5.138;2023-01-10T14:09:04;14.60;;;3.70;;
56081;SDS011;41957;52.060;5.138;2023-01-10T14:14:12;15.13;;;3.30;;
56081;SDS011;41957;52.060;5.138;2023-01-10T14:19:36;15.02;;;3.42;;
56081;SDS011;41957;52.060;5.138;2023-01-10T14:22:03;14.65;;;3.72;;
56081;SDS011;41957;52.060;5.138;2023-01-10T14:24:31;15.93;;;3.50;;
56081;SDS011;41957;52.060;5.138;2023-01-10T14:27:03;12.25;;;3.13;;
56081;SDS011;41957;52.060;5.138;2023-01-10T14:29:35;15.82;;;3.33;;
56081;SDS011;41957;52.060;5.138;2023-01-10T14:32:04;15.95;;;3.50;;
56081;SDS011;41957;52.060;5.138;2023-01-10T14:34:42;14.95;;;3.58;;
56081;SDS011;41957;52.060;5.138;2023-01-10T14:37:23;14.18;;;3.45;;
56081;SDS011;41957;52.060;5.138;2023-01-10T14:39:53;14.63;;;3.05;;
56081;SDS011;41957;52.060;5.138;2023-01-10T14:42:20;14.68;;;3.22;;
56081;SDS011;41957;52.060;5.138;2023-01-10T14:44:49;13.32;;;3.22;;
56081;SDS011;41957;52.060;5.138;2023-01-10T14:47:28;16.10;;;3.70;;
56081;SDS011;41957;52.060;5.138;2023-01-10T14:49:58;15.88;;;3.80;;
56081;SDS011;41957;52.060;5.138;2023-01-10T14:52:27;14.60;;;3.78;;
56081;SDS011;41957;52.060;5.138;2023-01-10T14:54:54;16.30;;;3.78;;
56081;SDS011;41957;52.060;5.138;2023-01-10T14:57:55;14.05;;;3.63;;
56081;SDS011;41957;52.060;5.138;2023-01-10T15:00:29;15.40;;;3.85;;
56081;SDS011;41957;52.060;5.138;2023-01-10T15:02:58;13.00;;;3.28;;
56081;SDS011;41957;52.060;5.138;2023-01-10T15:05:29;13.90;;;3.65;;
56081;SDS011;41957;52.060;5.138;2023-01-10T15:08:13;15.50;;;3.95;;
56081;SDS011;41957;52.060;5.138;2023-01-10T15:10:45;14.18;;;3.60;;
56081;SDS011;41957;52.060;5.138;2023-01-10T15:13:16;14.98;;;3.65;;
56081;SDS011;41957;52.060;5.138;2023-01-10T15:15:44;17.45;;;3.72;;
56081;SDS011;41957;52.060;5.138;2023-01-10T15:18:21;15.70;;;3.97;;
56081;SDS011;41957;52.060;5.138;2023-01-10T15:20:54;13.82;;;3.80;;
56081;SDS011;41957;52.060;5.138;2023-01-10T15:23:20;14.27;;;3.75;;
56081;SDS011;41957;52.060;5.138;2023-01-10T15:25:53;16.05;;;4.32;;
56081;SDS011;41957;52.060;5.138;2023-01-10T15:28:23;14.02;;;3.47;;
56081;SDS011;41957;52.060;5.138;2023-01-10T15:30:49;13.55;;;3.45;;
56081;SDS011;41957;52.060;5.138;2023-01-10T15:33:15;14.57;;;2.97;;
56081;SDS011;41957;52.060;5.138;2023-01-10T15:35:50;13.45;;;3.30;;
56081;SDS011;41957;52.060;5.138;2023-01-10T15:38:20;16.30;;;3.53;;
56081;SDS011;41957;52.060;5.138;2023-01-10T15:40:57;15.18;;;3.60;;
56081;SDS011;41957;52.060;5.138;2023-01-10T15:43:28;16.23;;;3.85;;
56081;SDS011;41957;52.060;5.138;2023-01-10T15:45:55;16.42;;;3.53;;
56081;SDS011;41957;52.060;5.138;2023-01-10T15:50:57;12.95;;;3.42;;
56081;SDS011;41957;52.060;5.138;2023-01-10T15:56:47;13.50;;;3.15;;
56081;SDS011;41957;52.060;5.138;2023-01-10T15:59:20;15.23;;;3.55;;
56081;SDS011;41957;52.060;5.138;2023-01-10T16:01:53;15.63;;;3.40;;
56081;SDS011;41957;52.060;5.138;2023-01-10T16:04:22;12.15;;;2.88;;
56081;SDS011;41957;52.060;5.138;2023-01-10T16:06:48;14.13;;;3.13;;
56081;SDS011;41957;52.060;5.138;2023-01-10T16:09:18;15.57;;;3.80;;
56081;SDS011;41957;52.060;5.138;2023-01-10T16:11:51;14.70;;;2.85;;
56081;SDS011;41957;52.060;5.138;2023-01-10T16:14:36;11.68;;;3.00;;
56081;SDS011;41957;52.060;5.138;2023-01-10T16:17:02;12.35;;;3.15;;
56081;SDS011;41957;52.060;5.138;2023-01-10T16:19:28;13.90;;;3.28;;
56081;SDS011;41957;52.060;5.138;2023-01-10T16:21:55;13.57;;;3.40;;
56081;SDS011;41957;52.060;5.138;2023-01-10T16:24:26;13.32;;;3.13;;
56081;SDS011;41957;52.060;5.138;2023-01-10T16:26:53;10.93;;;2.80;;
56081;SDS011;41957;52.060;5.138;2023-01-10T16:29:20;11.57;;;2.90;;
56081;SDS011;41957;52.060;5.138;2023-01-10T16:31:46;11.55;;;2.78;;
56081;SDS011;41957;52.060;5.138;2023-01-10T16:34:18;11.70;;;3.03;;
56081;SDS011;41957;52.060;5.138;2023-01-10T16:36:44;13.05;;;2.92;;
56081;SDS011;41957;52.060;5.138;2023-01-10T16:39:14;11.27;;;2.53;;
56081;SDS011;41957;52.060;5.138;2023-01-10T16:41:42;10.93;;;2.58;;
56081;SDS011;41957;52.060;5.138;2023-01-10T16:44:27;10.57;;;2.58;;
56081;SDS011;41957;52.060;5.138;2023-01-10T16:46:52;11.50;;;2.35;;
56081;SDS011;41957;52.060;5.138;2023-01-10T16:49:18;12.57;;;2.25;;
56081;SDS011;41957;52.060;5.138;2023-01-10T16:51:44;11.60;;;2.60;;
56081;SDS011;41957;52.060;5.138;2023-01-10T16:54:14;8.82;;;2.20;;
56081;SDS011;41957;52.060;5.138;2023-01-10T16:56:41;9.60;;;2.42;;
56081;SDS011;41957;52.060;5.138;2023-01-10T16:59:09;11.35;;;2.17;;